Time;durP1;ratioP1;P1;durP2;ratioP2;P2;SDS_P1;SDS_P2;PMS_P1;PMS_P2;Temp;Humidity;BMP_temperature;BMP_pressure;BME280_temperature;BME280_humidity;BME280_pressure;Samples;Min_cycle;Max_cycle;Signal;HPM_P1;HPM_P2
2022/02/14 00:01:58;;;;;;;5.57;1.10;;;9.70;99.90;;;;;;5065951;28;20021;-77
2022/02/14 00:04:23;;;;;;;9.35;1.70;;;9.80;99.90;;;;;;5060454;28;20112;-77
2022/02/14 00:06:49;;;;;;;5.18;1.50;;;9.70;99.90;;;;;;5054519;28;20512;-76
2022/02/14 00:09:14;;;;;;;15.23;2.50;;;9.70;99.90;;;;;;5065017;28;20016;-77
2022/02/14 00:11:40;;;;;;;5.93;1.92;;;9.70;99.90;;;;;;5054165;28;20080;-77
2022/02/14 00:14:06;;;;;;;8.20;1.20;;;9.80;99.90;;;;;;5055023;28;20021;-76
2022/02/14 00:16:32;;;;;;;5.05;1.33;;;9.80;99.90;;;;;;5050506;28;20029;-77
2022/02/14 00:18:57;;;;;;;8.05;1.70;;;9.80;99.90;;;;;;5062018;28;20031;-77
2022/02/14 00:21:23;;;;;;;5.80;1.33;;;9.80;99.90;;;;;;5063616;28;20429;-77
2022/02/14 00:23:49;;;;;;;6.30;1.48;;;9.80;99.90;;;;;;5057087;28;20033;-77
2022/02/14 00:26:14;;;;;;;5.50;1.55;;;9.80;99.90;;;;;;5052810;28;20103;-77
2022/02/14 00:28:40;;;;;;;3.75;1.33;;;9.90;99.90;;;;;;5059872;28;20119;-77
2022/02/14 00:31:05;;;;;;;5.28;1.67;;;10.00;99.90;;;;;;5056106;28;20116;-77
2022/02/14 00:33:31;;;;;;;4.57;1.40;;;10.00;99.90;;;;;;5054900;28;20021;-77
2022/02/14 00:35:56;;;;;;;3.97;1.50;;;10.00;99.90;;;;;;5052235;28;20068;-77
2022/02/14 00:38:22;;;;;;;5.80;1.20;;;10.00;99.90;;;;;;5058161;28;20032;-77
2022/02/14 00:40:47;;;;;;;7.35;1.23;;;10.10;99.90;;;;;;5061980;28;20416;-77
2022/02/14 00:43:13;;;;;;;8.95;2.03;;;10.10;99.90;;;;;;5056540;28;20419;-77
2022/02/14 00:45:39;;;;;;;5.75;1.52;;;10.10;99.90;;;;;;5056592;28;20033;-77
2022/02/14 00:48:05;;;;;;;9.48;1.48;;;10.10;99.90;;;;;;5057270;28;20029;-77
2022/02/14 00:50:31;;;;;;;6.78;1.15;;;10.10;99.90;;;;;;5061921;28;20043;-77
2022/02/14 00:52:56;;;;;;;9.30;1.15;;;10.20;99.90;;;;;;5040633;28;20021;-78
2022/02/14 00:55:22;;;;;;;9.85;1.75;;;10.20;99.90;;;;;;5057423;28;20036;-80
2022/02/14 00:57:49;;;;;;;5.72;1.38;;;10.20;99.90;;;;;;5059314;28;20029;-81
2022/02/14 01:00:16;;;;;;;6.68;1.08;;;10.20;99.90;;;;;;5033135;28;20029;-81
2022/02/14 01:02:42;;;;;;;6.70;1.10;;;10.20;99.90;;;;;;5055836;28;20452;-80
2022/02/14 01:05:09;;;;;;;8.40;1.48;;;10.30;99.90;;;;;;5031521;28;20119;-81
2022/02/14 01:07:35;;;;;;;5.97;1.02;;;10.20;99.90;;;;;;5055659;28;20029;-80
2022/02/14 01:10:01;;;;;;;4.63;0.98;;;10.30;99.90;;;;;;5051403;28;20052;-81
2022/02/14 01:12:28;;;;;;;5.45;1.00;;;10.20;99.90;;;;;;5051807;28;20033;-80
2022/02/14 01:14:53;;;;;;;6.03;1.08;;;10.30;99.90;;;;;;5052117;28;20500;-80
2022/02/14 01:17:20;;;;;;;6.30;1.08;;;10.20;99.90;;;;;;5062872;28;20028;-79
2022/02/14 01:19:45;;;;;;;7.05;1.40;;;10.30;99.90;;;;;;5067649;28;20102;-79
2022/02/14 01:22:11;;;;;;;3.72;1.10;;;10.20;99.90;;;;;;5062709;28;20025;-81
2022/02/14 01:24:37;;;;;;;7.05;1.00;;;10.30;99.90;;;;;;5067329;28;20485;-80
2022/02/14 01:27:04;;;;;;;5.35;1.10;;;10.30;99.90;;;;;;5051923;28;20118;-80
2022/02/14 01:29:30;;;;;;;4.13;0.93;;;10.30;99.90;;;;;;5057210;28;20238;-81
2022/02/14 01:31:56;;;;;;;3.63;1.40;;;10.30;99.90;;;;;;5065479;28;20028;-81
2022/02/14 01:34:22;;;;;;;4.75;0.77;;;10.30;99.90;;;;;;5054454;28;20023;-80
2022/02/14 01:36:48;;;;;;;3.35;1.10;;;10.30;99.90;;;;;;5061814;28;20122;-79
2022/02/14 01:39:13;;;;;;;5.22;1.30;;;10.30;99.90;;;;;;5056952;28;20025;-82
2022/02/14 01:41:39;;;;;;;3.22;0.90;;;10.20;99.90;;;;;;5058537;28;20029;-83
2022/02/14 01:44:12;;;;;;;6.75;1.10;;;10.20;99.90;;;;;;5052163;28;20031;-83
2022/02/14 01:46:38;;;;;;;5.45;1.00;;;10.20;99.90;;;;;;5052924;28;20056;-82
2022/02/14 01:49:04;;;;;;;7.28;1.15;;;10.10;99.90;;;;;;5066921;28;20053;-82
2022/02/14 01:51:32;;;;;;;3.72;0.85;;;10.10;99.90;;;;;;5059802;28;20111;-81
2022/02/14 01:53:58;;;;;;;7.13;0.98;;;10.10;99.90;;;;;;5056399;28;20025;-80
2022/02/14 01:56:24;;;;;;;3.90;0.88;;;10.00;99.90;;;;;;5051063;28;20108;-81
2022/02/14 01:58:49;;;;;;;4.32;0.70;;;10.00;99.90;;;;;;5071267;28;20463;-80
2022/02/14 02:01:15;;;;;;;5.28;0.90;;;10.00;99.90;;;;;;5056682;28;20025;-79
2022/02/14 02:03:40;;;;;;;14.00;1.23;;;10.00;99.90;;;;;;5055657;28;20416;-80
2022/02/14 02:06:09;;;;;;;7.60;0.88;;;10.00;99.90;;;;;;5058924;28;20100;-81
2022/02/14 02:08:35;;;;;;;3.78;0.80;;;9.90;99.90;;;;;;5047316;28;20035;-81
2022/02/14 02:13:49;;;;;;;4.72;0.75;;;9.90;99.90;;;;;;5055164;28;20075;-80
2022/02/14 02:16:16;;;;;;;5.32;0.80;;;9.90;99.90;;;;;;5038163;28;20032;-80
2022/02/14 02:18:41;;;;;;;6.05;1.05;;;10.00;99.90;;;;;;5054007;28;20028;-80
2022/02/14 02:21:07;;;;;;;6.38;0.98;;;10.00;99.90;;;;;;5036086;28;20033;-83
2022/02/14 02:23:33;;;;;;;5.68;0.95;;;10.10;99.90;;;;;;5049148;28;20029;-83
2022/02/14 02:25:58;;;;;;;4.25;0.82;;;10.20;99.90;;;;;;5058677;28;20033;-83
2022/02/14 02:28:24;;;;;;;3.22;0.93;;;10.10;99.90;;;;;;5036935;28;20028;-83
2022/02/14 02:30:50;;;;;;;8.13;1.08;;;10.20;99.90;;;;;;5067102;28;20063;-83
2022/02/14 02:33:15;;;;;;;7.60;1.10;;;10.20;99.90;;;;;;5058029;28;20021;-83
2022/02/14 02:35:41;;;;;;;4.72;0.93;;;10.20;99.90;;;;;;5058909;28;20086;-83
2022/02/14 02:38:06;;;;;;;4.13;0.70;;;10.30;99.90;;;;;;5069285;28;20392;-81
2022/02/14 02:40:32;;;;;;;7.47;0.90;;;10.30;99.90;;;;;;5074240;28;20352;-81
2022/02/14 02:42:58;;;;;;;6.15;0.80;;;10.30;99.90;;;;;;5041504;28;20461;-81
2022/02/14 02:45:24;;;;;;;4.10;0.90;;;10.30;99.90;;;;;;5046475;28;20025;-82
2022/02/14 02:47:49;;;;;;;4.60;0.73;;;10.30;99.90;;;;;;5059954;28;20025;-84
2022/02/14 02:50:17;;;;;;;3.17;0.60;;;10.30;99.90;;;;;;5042401;28;20040;-80
2022/02/14 02:52:43;;;;;;;6.75;0.90;;;10.30;99.90;;;;;;5067651;28;20385;-80
2022/02/14 02:55:08;;;;;;;4.78;1.00;;;10.30;99.90;;;;;;5060433;28;20033;-79
2022/02/14 02:57:34;;;;;;;5.53;0.85;;;10.40;99.90;;;;;;5042579;28;20584;-79
2022/02/14 02:59:59;;;;;;;5.07;0.95;;;10.40;99.90;;;;;;5049984;28;20028;-79
2022/02/14 03:02:25;;;;;;;2.97;0.77;;;10.50;99.90;;;;;;5048914;28;20031;-79
2022/02/14 03:04:50;;;;;;;3.55;1.38;;;10.50;99.90;;;;;;5051930;28;20035;-78
2022/02/14 03:07:16;;;;;;;5.20;1.20;;;10.50;99.90;;;;;;5064641;28;20033;-79
2022/02/14 03:09:42;;;;;;;7.00;0.80;;;10.50;99.90;;;;;;5059929;28;20055;-80
2022/02/14 03:12:08;;;;;;;5.05;0.70;;;10.60;99.90;;;;;;5066411;28;20024;-79
2022/02/14 03:14:38;;;;;;;6.18;1.30;;;10.60;99.90;;;;;;5067307;28;20035;-79
2022/02/14 03:17:05;;;;;;;4.80;0.80;;;10.60;99.90;;;;;;5030042;28;20028;-78
2022/02/14 03:19:31;;;;;;;5.18;0.63;;;10.60;99.90;;;;;;5065984;28;20039;-79
2022/02/14 03:21:56;;;;;;;4.22;0.68;;;10.60;99.90;;;;;;5059914;28;20160;-78
2022/02/14 03:24:22;;;;;;;5.88;0.80;;;10.60;99.90;;;;;;5060730;28;20029;-78
2022/02/14 03:26:48;;;;;;;5.03;0.85;;;10.60;99.90;;;;;;5051597;28;20040;-78
2022/02/14 03:29:14;;;;;;;3.22;0.70;;;10.60;99.90;;;;;;5060310;28;20508;-77
2022/02/14 03:31:40;;;;;;;4.18;0.70;;;10.60;99.90;;;;;;5037736;28;20041;-79
2022/02/14 03:34:06;;;;;;;4.75;0.60;;;10.50;99.90;;;;;;5056460;28;20378;-79
2022/02/14 03:36:31;;;;;;;3.95;0.77;;;10.50;99.90;;;;;;5059356;28;20052;-78
2022/02/14 03:38:57;;;;;;;3.05;0.80;;;10.50;99.90;;;;;;5041159;28;20017;-78
2022/02/14 03:41:22;;;;;;;3.60;0.60;;;10.60;99.90;;;;;;5053176;28;20032;-79
2022/02/14 03:43:48;;;;;;;2.90;0.60;;;10.60;99.90;;;;;;5066887;28;20385;-82
2022/02/14 03:46:14;;;;;;;3.17;0.70;;;10.60;99.90;;;;;;5075918;28;20035;-81
2022/02/14 03:48:39;;;;;;;4.72;0.95;;;10.60;99.90;;;;;;5065208;28;20162;-80
2022/02/14 03:51:05;;;;;;;4.18;0.70;;;10.60;99.90;;;;;;5061738;28;20040;-81
2022/02/14 03:53:30;;;;;;;9.15;0.90;;;10.60;99.90;;;;;;5058986;28;20385;-81
2022/02/14 03:55:56;;;;;;;5.25;1.15;;;10.60;99.90;;;;;;5052958;28;20060;-82
2022/02/14 03:58:22;;;;;;;5.68;1.00;;;10.60;99.90;;;;;;5059318;28;20472;-81
2022/02/14 04:00:48;;;;;;;4.15;0.50;;;10.60;99.90;;;;;;5065343;28;20079;-82
2022/02/14 04:03:13;;;;;;;2.80;0.70;;;10.60;99.90;;;;;;5067041;28;20036;-81
2022/02/14 04:05:39;;;;;;;3.55;0.80;;;10.60;99.90;;;;;;5060608;28;20056;-81
2022/02/14 04:08:05;;;;;;;9.80;1.02;;;10.60;99.90;;;;;;5054764;28;20064;-81
2022/02/14 04:10:30;;;;;;;5.18;0.90;;;10.60;99.90;;;;;;5072187;28;20032;-83
2022/02/14 04:12:56;;;;;;;6.47;1.25;;;10.60;99.90;;;;;;5059646;28;20048;-82
2022/02/14 04:15:22;;;;;;;5.97;0.70;;;10.70;99.90;;;;;;5047153;28;20029;-83
2022/02/14 04:17:48;;;;;;;5.25;0.70;;;10.70;99.90;;;;;;5053245;28;20032;-81
2022/02/14 04:20:15;;;;;;;4.20;0.77;;;10.60;99.90;;;;;;5063586;28;20020;-81
2022/02/14 04:22:41;;;;;;;7.95;0.85;;;10.60;99.90;;;;;;5044464;28;20024;-81
2022/02/14 04:25:12;;;;;;;4.20;0.60;;;10.60;99.90;;;;;;5066780;28;20369;-82
2022/02/14 04:27:37;;;;;;;3.90;0.70;;;10.60;99.90;;;;;;5060703;28;20021;-81
2022/02/14 04:30:04;;;;;;;5.45;0.60;;;10.60;99.90;;;;;;5055548;28;20392;-81
2022/02/14 04:32:30;;;;;;;6.25;0.70;;;10.60;99.90;;;;;;5053152;28;20506;-79
2022/02/14 04:34:56;;;;;;;3.75;0.60;;;10.60;99.90;;;;;;5045994;28;20060;-81
2022/02/14 04:37:21;;;;;;;2.80;0.60;;;10.60;99.90;;;;;;5051812;28;20050;-80
2022/02/14 04:39:47;;;;;;;5.32;0.70;;;10.60;99.90;;;;;;5065712;28;20031;-79
2022/02/14 04:42:12;;;;;;;4.82;0.60;;;10.60;99.90;;;;;;5060364;28;20033;-78
2022/02/14 04:44:38;;;;;;;5.18;0.50;;;10.60;99.90;;;;;;5033631;28;20029;-79
2022/02/14 04:47:04;;;;;;;4.88;0.50;;;10.60;99.90;;;;;;5058945;28;20031;-79
2022/02/14 04:49:30;;;;;;;7.03;1.27;;;10.60;99.90;;;;;;5069016;28;20028;-80
2022/02/14 04:51:56;;;;;;;3.83;0.60;;;10.60;99.90;;;;;;5053096;28;20423;-80
2022/02/14 04:54:22;;;;;;;2.97;1.33;;;10.50;99.90;;;;;;5070156;28;20028;-80
2022/02/14 04:56:47;;;;;;;5.70;0.50;;;10.50;99.90;;;;;;5059083;28;20128;-80
2022/02/14 04:59:14;;;;;;;3.45;0.55;;;10.50;99.90;;;;;;5056800;28;20116;-79
2022/02/14 05:01:40;;;;;;;4.20;0.50;;;10.60;99.90;;;;;;5046717;28;20025;-80
2022/02/14 05:04:06;;;;;;;4.93;1.30;;;10.60;99.90;;;;;;5053224;28;20025;-80
2022/02/14 05:06:31;;;;;;;3.63;0.70;;;10.50;99.90;;;;;;5052983;28;20074;-77
2022/02/14 05:08:57;;;;;;;3.17;0.40;;;10.50;99.90;;;;;;5055297;28;20032;-80
2022/02/14 05:11:23;;;;;;;4.88;0.63;;;10.50;99.90;;;;;;5044159;28;20044;-82
2022/02/14 05:13:50;;;;;;;2.63;0.52;;;10.50;99.90;;;;;;5066021;28;20052;-85
2022/02/14 05:16:16;;;;;;;3.33;0.50;;;10.50;99.90;;;;;;5052771;28;20493;-78
2022/02/14 05:18:42;;;;;;;5.53;0.52;;;10.60;99.90;;;;;;5050486;28;20029;-78
2022/02/14 05:21:07;;;;;;;4.47;0.60;;;10.60;99.90;;;;;;5057340;28;20156;-79
2022/02/14 05:23:33;;;;;;;1.67;0.40;;;10.60;99.90;;;;;;5049985;28;20024;-79
2022/02/14 05:25:59;;;;;;;2.10;0.60;;;10.60;99.90;;;;;;5075036;28;20111;-78
2022/02/14 05:28:24;;;;;;;4.57;0.60;;;10.60;99.90;;;;;;5051147;28;20028;-78
2022/02/14 05:30:50;;;;;;;3.08;0.50;;;10.60;99.90;;;;;;5047792;28;20346;-80
2022/02/14 05:33:15;;;;;;;2.28;0.50;;;10.70;99.90;;;;;;5051258;28;20162;-77
2022/02/14 05:35:41;;;;;;;2.85;0.50;;;10.70;99.90;;;;;;5060830;28;20045;-78
2022/02/14 05:38:10;;;;;;;2.45;0.60;;;10.60;99.90;;;;;;5061440;28;20107;-81
2022/02/14 05:40:36;;;;;;;1.90;0.63;;;10.70;99.90;;;;;;5053979;28;20089;-80
2022/02/14 05:43:01;;;;;;;1.52;0.40;;;10.70;99.90;;;;;;5056284;28;20028;-80
2022/02/14 05:45:27;;;;;;;2.17;0.60;;;10.60;99.90;;;;;;5045887;28;20021;-80
2022/02/14 05:47:52;;;;;;;4.38;0.77;;;10.60;99.90;;;;;;5037345;28;20025;-79
2022/02/14 05:50:18;;;;;;;5.18;1.27;;;10.60;99.90;;;;;;5040012;28;20082;-80
2022/02/14 05:52:44;;;;;;;4.25;0.63;;;10.60;99.90;;;;;;5043655;28;20074;-80
2022/02/14 05:55:10;;;;;;;2.22;0.50;;;10.70;99.90;;;;;;5064259;28;20087;-80
2022/02/14 05:57:36;;;;;;;3.83;0.52;;;10.70;99.90;;;;;;5054388;28;20021;-80
2022/02/14 06:00:02;;;;;;;4.70;0.60;;;10.60;99.90;;;;;;5060009;28;20035;-80
2022/02/14 06:02:28;;;;;;;3.80;0.50;;;10.60;99.90;;;;;;5066220;28;20511;-79
2022/02/14 06:04:54;;;;;;;4.35;0.60;;;10.70;99.90;;;;;;5063838;28;20151;-79
2022/02/14 06:07:19;;;;;;;2.72;0.52;;;10.70;99.90;;;;;;5068997;28;20056;-80
2022/02/14 06:09:45;;;;;;;5.13;0.75;;;10.60;99.90;;;;;;5068582;28;20067;-80
2022/02/14 06:12:11;;;;;;;2.63;0.40;;;10.60;99.90;;;;;;5063197;28;20036;-79
2022/02/14 06:14:36;;;;;;;2.92;0.43;;;10.60;99.90;;;;;;5073025;28;20035;-80
2022/02/14 06:17:02;;;;;;;1.55;0.47;;;10.60;99.90;;;;;;5048375;28;20063;-80
2022/02/14 06:19:27;;;;;;;2.63;0.50;;;10.60;99.90;;;;;;5066140;28;20108;-80
2022/02/14 06:21:53;;;;;;;2.58;0.75;;;10.60;99.90;;;;;;5060438;28;20400;-82
2022/02/14 06:24:19;;;;;;;4.18;0.50;;;10.60;99.90;;;;;;5062117;28;20490;-80
2022/02/14 06:26:45;;;;;;;2.65;0.50;;;10.70;99.90;;;;;;5069693;28;20496;-80
2022/02/14 06:29:10;;;;;;;2.88;0.52;;;10.70;99.90;;;;;;5072596;28;20143;-81
2022/02/14 06:31:36;;;;;;;2.10;0.40;;;10.70;99.90;;;;;;5043181;28;20409;-80
2022/02/14 06:34:02;;;;;;;3.13;0.57;;;10.70;99.90;;;;;;5053579;28;20472;-80
2022/02/14 06:36:28;;;;;;;1.50;0.50;;;10.70;99.90;;;;;;5051430;28;20059;-78
2022/02/14 06:38:55;;;;;;;3.55;0.50;;;10.70;99.90;;;;;;5054427;28;20472;-80
2022/02/14 06:41:21;;;;;;;1.90;0.50;;;10.70;99.90;;;;;;5055147;28;20053;-81
2022/02/14 06:43:46;;;;;;;4.50;0.50;;;10.70;99.90;;;;;;5054402;28;20032;-80
2022/02/14 06:46:13;;;;;;;3.22;0.47;;;10.80;99.90;;;;;;5064431;28;20021;-81
2022/02/14 06:48:38;;;;;;;4.30;0.50;;;10.80;99.90;;;;;;5060929;28;20492;-80
2022/02/14 06:51:04;;;;;;;1.40;0.40;;;10.80;99.90;;;;;;5060598;28;20041;-79
2022/02/14 06:53:32;;;;;;;1.05;0.40;;;10.90;99.90;;;;;;5073429;28;20020;-80
2022/02/14 06:56:00;;;;;;;4.93;0.73;;;10.90;99.90;;;;;;5071556;28;20489;-80
2022/02/14 06:58:25;;;;;;;3.28;0.45;;;10.90;99.90;;;;;;5055935;28;20043;-80
2022/02/14 07:00:51;;;;;;;2.22;0.40;;;10.90;99.90;;;;;;5066290;28;20029;-80
2022/02/14 07:03:17;;;;;;;2.72;0.50;;;11.00;99.90;;;;;;5072940;28;20530;-79
2022/02/14 07:05:42;;;;;;;1.38;0.40;;;10.90;99.90;;;;;;5039705;28;20025;-79
2022/02/14 07:08:09;;;;;;;3.25;0.57;;;11.00;99.90;;;;;;5042001;28;20021;-80
2022/02/14 07:10:34;;;;;;;2.38;0.40;;;11.00;99.90;;;;;;5057577;28;20094;-80
2022/02/14 07:13:00;;;;;;;4.22;0.50;;;11.10;99.90;;;;;;5055884;28;20020;-79
2022/02/14 07:15:26;;;;;;;3.38;0.50;;;11.10;99.90;;;;;;5054169;28;20036;-81
2022/02/14 07:17:52;;;;;;;4.43;1.08;;;11.20;99.90;;;;;;5055542;28;20025;-79
2022/02/14 07:20:19;;;;;;;3.70;0.60;;;11.20;99.90;;;;;;5067799;28;20021;-82
2022/02/14 07:22:47;;;;;;;5.07;0.80;;;11.20;99.90;;;;;;5049594;28;20029;-81
2022/02/14 07:25:13;;;;;;;4.93;0.55;;;11.30;99.90;;;;;;5041171;28;20013;-80
2022/02/14 07:27:39;;;;;;;3.10;0.57;;;11.20;99.90;;;;;;5065360;28;20393;-79
2022/02/14 07:30:07;;;;;;;2.75;0.60;;;11.20;99.90;;;;;;5065390;28;20040;-80
2022/02/14 07:32:33;;;;;;;1.50;0.50;;;11.10;99.90;;;;;;5034361;28;20488;-78
2022/02/14 07:34:59;;;;;;;4.40;0.47;;;11.00;99.90;;;;;;5068588;28;20052;-80
2022/02/14 07:37:25;;;;;;;5.70;0.70;;;11.00;99.90;;;;;;5066042;28;20036;-82
2022/02/14 07:39:51;;;;;;;1.63;0.60;;;11.00;99.90;;;;;;5058235;28;20025;-79
2022/02/14 07:42:17;;;;;;;3.65;0.60;;;11.00;99.90;;;;;;5071676;28;20078;-82
2022/02/14 07:44:43;;;;;;;1.75;0.50;;;11.10;99.90;;;;;;5045965;28;20036;-83
2022/02/14 07:47:08;;;;;;;4.88;1.00;;;11.10;99.90;;;;;;5055738;28;20035;-83
2022/02/14 07:49:34;;;;;;;3.90;0.50;;;11.20;99.90;;;;;;5074108;28;20107;-83
2022/02/14 07:51:59;;;;;;;1.85;0.55;;;11.20;99.90;;;;;;5057348;28;20761;-84
2022/02/14 07:54:25;;;;;;;1.63;0.40;;;11.30;99.90;;;;;;5058980;28;20051;-84
2022/02/14 07:56:51;;;;;;;4.03;0.50;;;11.30;99.90;;;;;;5066774;28;20572;-84
2022/02/14 07:59:16;;;;;;;4.30;0.50;;;11.40;99.90;;;;;;5056819;28;20073;-85
2022/02/14 08:01:41;;;;;;;1.63;0.50;;;11.30;99.90;;;;;;5062969;28;20093;-85
2022/02/14 08:04:07;;;;;;;2.58;0.50;;;11.40;99.90;;;;;;5043248;28;20629;-85
2022/02/14 08:06:35;;;;;;;3.38;0.40;;;11.30;99.90;;;;;;5062597;28;20100;-85
2022/02/14 08:09:01;;;;;;;3.17;0.50;;;11.30;99.90;;;;;;5060928;28;20043;-87
2022/02/14 08:11:27;;;;;;;2.38;0.13;;;11.20;99.90;;;;;;5059946;28;20025;-86
2022/02/14 08:13:52;;;;;;;1.20;0.20;;;10.90;99.90;;;;;;5070982;28;20044;-86
2022/02/14 08:16:18;;;;;;;1.75;0.20;;;10.20;99.90;;;;;;5058190;28;20048;-87
2022/02/14 08:18:43;;;;;;;5.03;0.20;;;9.70;99.90;;;;;;5058880;28;20033;-85
2022/02/14 08:21:09;;;;;;;0.30;0.10;;;9.30;99.90;;;;;;5035570;28;20029;-86
2022/02/14 08:23:34;;;;;;;1.08;0.10;;;8.90;99.90;;;;;;5057876;28;20029;-85
2022/02/14 08:26:00;;;;;;;0.98;0.20;;;8.80;99.90;;;;;;5056575;28;20024;-85
2022/02/14 08:28:26;;;;;;;1.52;0.10;;;8.60;99.90;;;;;;5064880;28;20036;-85
2022/02/14 08:30:52;;;;;;;0.15;0.10;;;8.50;99.90;;;;;;5054415;28;20448;-84
2022/02/14 08:33:18;;;;;;;0.38;0.00;;;8.40;99.90;;;;;;5036189;28;20021;-85
2022/02/14 08:35:44;;;;;;;0.47;0.10;;;8.50;99.90;;;;;;5034399;28;20645;-84
2022/02/14 08:38:11;;;;;;;0.40;0.03;;;8.40;99.90;;;;;;5035731;28;20021;-85
2022/02/14 08:40:37;;;;;;;0.20;0.10;;;8.50;99.90;;;;;;5071920;28;20035;-85
2022/02/14 08:43:03;;;;;;;1.13;0.10;;;8.50;99.90;;;;;;5051090;28;20469;-86
2022/02/14 08:45:31;;;;;;;0.40;0.10;;;8.50;99.90;;;;;;5066071;28;20506;-85
2022/02/14 08:47:57;;;;;;;0.00;0.00;;;8.60;99.90;;;;;;5060752;28;20032;-85
2022/02/14 08:50:22;;;;;;;0.68;0.10;;;8.60;99.90;;;;;;5039779;28;20040;-85
2022/02/14 08:52:48;;;;;;;1.95;0.05;;;8.60;99.90;;;;;;5072551;28;20025;-86
2022/02/14 08:55:15;;;;;;;0.30;0.00;;;8.70;99.90;;;;;;5070651;28;20395;-84
2022/02/14 08:57:42;;;;;;;0.10;0.00;;;8.70;99.90;;;;;;5055393;28;20316;-85
2022/02/14 09:00:08;;;;;;;0.30;0.08;;;8.70;99.90;;;;;;5071803;28;20027;-85
2022/02/14 09:02:34;;;;;;;1.40;0.00;;;8.80;99.90;;;;;;5054792;28;20032;-85
2022/02/14 09:05:00;;;;;;;0.13;0.05;;;8.80;99.90;;;;;;5047519;28;20017;-86
2022/02/14 09:07:26;;;;;;;0.25;0.00;;;8.80;99.90;;;;;;5041207;28;20025;-85
2022/02/14 09:09:51;;;;;;;1.98;0.00;;;8.80;99.90;;;;;;5070525;28;20032;-85
2022/02/14 09:12:18;;;;;;;0.50;0.10;;;8.90;99.90;;;;;;5060960;28;20032;-85
2022/02/14 09:14:44;;;;;;;0.50;0.10;;;8.90;99.90;;;;;;5074679;28;20507;-84
2022/02/14 09:17:09;;;;;;;0.30;0.10;;;9.00;99.90;;;;;;5069676;28;20021;-85
2022/02/14 09:19:35;;;;;;;0.10;0.00;;;9.00;99.90;;;;;;5063149;28;20025;-85
2022/02/14 09:22:01;;;;;;;2.75;0.10;;;9.00;99.90;;;;;;5063565;28;20107;-85
2022/02/14 09:24:26;;;;;;;0.30;0.10;;;9.00;99.90;;;;;;5054528;28;20025;-86
2022/02/14 09:26:52;;;;;;;0.90;0.30;;;9.00;99.90;;;;;;5057888;28;20032;-85
2022/02/14 09:29:18;;;;;;;1.77;0.30;;;9.00;99.90;;;;;;5055850;28;20028;-85
2022/02/14 09:31:44;;;;;;;1.65;0.40;;;9.10;99.90;;;;;;5058792;28;20047;-83
2022/02/14 09:34:10;;;;;;;1.35;0.65;;;9.20;99.90;;;;;;5039528;28;20451;-84
2022/02/14 09:36:36;;;;;;;2.53;0.82;;;9.20;99.90;;;;;;5039924;28;20106;-84
2022/02/14 09:39:03;;;;;;;1.50;0.80;;;9.30;99.90;;;;;;5057896;28;20036;-81
2022/02/14 09:41:30;;;;;;;1.80;0.75;;;9.30;99.90;;;;;;5061932;28;20028;-82
2022/02/14 09:43:56;;;;;;;4.13;1.23;;;9.30;99.90;;;;;;5060838;28;20029;-85
2022/02/14 09:46:22;;;;;;;2.00;1.30;;;9.30;99.90;;;;;;5061544;28;20021;-83
2022/02/14 09:48:48;;;;;;;2.53;1.40;;;9.40;99.90;;;;;;5074660;28;20025;-84
2022/02/14 09:51:23;;;;;;;1.98;1.45;;;9.50;99.90;;;;;;5066022;28;20044;-83
2022/02/14 09:53:48;;;;;;;4.63;1.42;;;9.60;99.90;;;;;;5067703;28;20025;-84
2022/02/14 09:56:14;;;;;;;1.85;1.20;;;9.60;99.90;;;;;;5070915;28;20036;-83
2022/02/14 09:58:39;;;;;;;2.63;1.52;;;9.80;99.90;;;;;;5059204;28;20155;-85
2022/02/14 10:01:05;;;;;;;5.07;1.25;;;9.90;99.90;;;;;;5055617;28;20032;-85
2022/02/14 10:03:31;;;;;;;1.63;1.00;;;9.90;99.90;;;;;;5055456;28;20402;-87
2022/02/14 10:05:58;;;;;;;2.00;1.23;;;10.00;99.90;;;;;;5055886;28;20025;-84
2022/02/14 10:08:30;;;;;;;1.90;1.02;;;10.00;99.90;;;;;;5073137;28;20033;-86
2022/02/14 10:11:10;;;;;;;3.20;1.27;;;10.10;99.90;;;;;;5071331;28;20442;-86
2022/02/14 10:13:38;;;;;;;2.58;1.52;;;10.10;99.90;;;;;;5047312;28;20379;-85
2022/02/14 10:16:13;;;;;;;2.58;1.60;;;10.10;99.90;;;;;;5042435;28;20017;-84
2022/02/14 10:18:41;;;;;;;3.05;1.95;;;10.10;99.90;;;;;;5061888;28;20020;-85
2022/02/14 10:21:35;;;;;;;4.70;2.08;;;10.20;99.90;;;;;;5075144;28;20024;-85
2022/02/14 10:24:13;;;;;;;3.55;1.90;;;10.10;99.90;;;;;;5053104;28;20052;-85
2022/02/14 10:26:42;;;;;;;3.30;2.13;;;10.10;99.90;;;;;;5062055;28;20031;-83
2022/02/14 10:29:27;;;;;;;3.00;2.08;;;10.20;99.90;;;;;;5058691;28;20074;-86
2022/02/14 10:32:06;;;;;;;5.15;2.40;;;10.30;99.90;;;;;;5073178;28;20048;-84
2022/02/14 10:34:43;;;;;;;4.40;2.00;;;10.30;99.90;;;;;;5065732;28;20025;-85
2022/02/14 10:37:11;;;;;;;4.93;1.75;;;10.40;99.90;;;;;;5054582;28;20555;-83
2022/02/14 10:39:40;;;;;;;5.28;1.90;;;10.40;99.90;;;;;;5065161;28;20080;-83
2022/02/14 10:42:11;;;;;;;4.28;1.70;;;10.40;99.90;;;;;;5062838;28;20029;-86
2022/02/14 10:47:29;;;;;;;3.83;2.05;;;10.40;99.90;;;;;;5056647;28;20488;-84
2022/02/14 10:50:05;;;;;;;2.58;1.63;;;10.40;99.90;;;;;;5062001;28;20028;-83
2022/02/14 10:52:32;;;;;;;3.42;1.30;;;10.30;99.90;;;;;;5058332;28;20376;-83
2022/02/14 10:54:58;;;;;;;2.92;1.23;;;10.30;99.90;;;;;;5059082;28;20146;-84
2022/02/14 10:57:30;;;;;;;2.08;1.10;;;10.30;99.90;;;;;;5054185;28;20131;-83
2022/02/14 11:00:20;;;;;;;2.55;1.17;;;10.20;99.90;;;;;;5062155;28;20060;-84
2022/02/14 11:02:58;;;;;;;2.08;0.90;;;10.10;99.90;;;;;;5060951;28;20032;-87
2022/02/14 11:05:25;;;;;;;4.22;1.40;;;10.20;99.90;;;;;;5054394;28;20071;-85
2022/02/14 11:07:51;;;;;;;4.55;1.40;;;10.30;99.90;;;;;;5037219;28;20420;-85
2022/02/14 11:10:18;;;;;;;4.47;0.90;;;10.40;99.90;;;;;;5059629;28;20036;-86
2022/02/14 11:12:58;;;;;;;2.38;1.08;;;10.50;99.90;;;;;;5049408;28;20481;-87
2022/02/14 11:15:32;;;;;;;2.65;0.90;;;10.50;99.90;;;;;;5036336;28;20033;-85
2022/02/14 11:18:04;;;;;;;4.10;1.30;;;10.50;99.90;;;;;;5036706;28;20029;-85
2022/02/14 11:20:32;;;;;;;4.22;0.95;;;10.60;99.90;;;;;;5054206;28;20033;-87
2022/02/14 11:23:00;;;;;;;2.38;1.00;;;10.70;99.90;;;;;;5044985;28;20029;-86
2022/02/14 11:25:29;;;;;;;5.15;0.93;;;10.70;99.90;;;;;;5053895;28;20032;-84
2022/02/14 11:28:18;;;;;;;3.20;0.75;;;10.70;99.90;;;;;;5054395;28;20040;-87
2022/02/14 11:31:08;;;;;;;2.80;0.80;;;10.70;99.90;;;;;;5054259;28;20059;-85
2022/02/14 11:33:35;;;;;;;3.50;0.88;;;10.60;99.90;;;;;;5063018;28;20027;-85
2022/02/14 11:36:08;;;;;;;2.78;0.75;;;10.60;99.90;;;;;;5053459;28;20045;-84
2022/02/14 11:38:49;;;;;;;;;;;10.60;99.90;;;;;;5074198;28;20119;-84
2022/02/14 11:41:36;;;;;;;4.07;0.80;;;10.60;99.90;;;;;;5055376;28;19912;-84
2022/02/14 11:46:54;;;;;;;2.47;0.60;;;10.50;99.90;;;;;;5073547;28;20116;-84
2022/02/14 11:49:20;;;;;;;2.05;0.65;;;10.50;99.90;;;;;;5068035;28;20538;-84
2022/02/14 11:51:55;;;;;;;3.30;0.80;;;10.50;99.90;;;;;;5060836;28;20042;-84
2022/02/14 11:54:39;;;;;;;2.25;0.70;;;10.50;99.90;;;;;;5063341;28;20017;-84
2022/02/14 11:57:17;;;;;;;2.53;0.73;;;10.60;99.90;;;;;;5053984;28;20431;-83
2022/02/14 11:59:44;;;;;;;3.60;0.75;;;10.70;99.90;;;;;;5035646;28;20024;-84
2022/02/14 12:02:10;;;;;;;3.88;0.75;;;10.80;99.90;;;;;;5044824;28;20074;-84
2022/02/14 12:04:36;;;;;;;2.30;0.82;;;10.90;99.90;;;;;;5053251;28;20033;-84
2022/02/14 12:07:20;;;;;;;4.72;1.02;;;10.90;99.90;;;;;;5054038;28;20021;-84
2022/02/14 12:10:01;;;;;;;4.03;1.08;;;10.90;99.90;;;;;;5058415;28;20029;-84
2022/02/14 12:12:56;;;;;;;4.00;0.80;;;11.00;99.90;;;;;;5053240;28;20120;-84
2022/02/14 12:20:58;;;;;;;1.80;0.50;;;11.10;99.90;;;;;;5054247;28;20063;-84
2022/02/14 12:23:33;;;;;;;5.10;1.10;;;11.10;99.90;;;;;;5058435;28;20294;-83
2022/02/14 12:26:00;;;;;;;3.00;1.13;;;11.10;99.90;;;;;;5071014;28;20032;-83
2022/02/14 12:28:27;;;;;;;3.00;0.43;;;11.20;99.90;;;;;;5059482;28;20054;-84
2022/02/14 12:30:56;;;;;;;3.35;0.63;;;11.20;99.90;;;;;;5055622;28;20037;-83
2022/02/14 12:33:22;;;;;;;3.95;0.40;;;11.20;99.90;;;;;;5052810;28;20032;-85
2022/02/14 12:35:50;;;;;;;5.72;0.40;;;11.30;99.90;;;;;;5065885;28;20055;-86
2022/02/14 12:38:17;;;;;;;3.15;0.40;;;11.40;99.90;;;;;;5072004;28;20029;-85
2022/02/14 12:40:44;;;;;;;2.05;0.30;;;11.40;99.90;;;;;;5073087;28;20245;-85
2022/02/14 12:43:10;;;;;;;3.58;0.30;;;11.40;99.90;;;;;;5060385;28;20024;-85
2022/02/14 12:45:36;;;;;;;4.10;0.30;;;11.40;99.90;;;;;;5068705;28;20025;-85
2022/02/14 12:48:02;;;;;;;2.88;0.30;;;11.40;99.90;;;;;;5052670;28;20021;-84
2022/02/14 12:50:37;;;;;;;2.13;0.30;;;11.50;99.90;;;;;;5039521;28;20531;-85
2022/02/14 12:53:09;;;;;;;3.38;0.40;;;11.60;99.90;;;;;;5052852;28;20104;-84
2022/02/14 12:55:35;;;;;;;3.70;0.30;;;11.60;99.90;;;;;;5051849;28;20025;-84
2022/02/14 12:58:01;;;;;;;4.68;0.40;;;11.60;99.70;;;;;;5054428;28;20370;-84
2022/02/14 13:00:38;;;;;;;2.20;0.40;;;11.50;99.90;;;;;;5052337;28;20029;-83
2022/02/14 13:03:10;;;;;;;2.05;0.30;;;11.40;99.90;;;;;;5052728;28;20036;-84